Bismarck, ND

1:13 AM CST on March 06, 2015 (GMT -0600)
Mandan | Change Station
CLOSE
Current Station
Airport
Location: Mandan,
Elevation: 1942 ft
Nearby Weather Stations

Elev 1942 ft 46.77 °N, 100.89 °W | Updated 18 minutes ago

Mostly Cloudy
Mostly Cloudy
25 °F
Feels Like 15 °F
N
10
Wind Variable Wind from WSW

Today
High -- | Low -- °F
--% Chance of Precip.
Yesterday
High -- | Low -- °F
Precip. -- in
7:13 AM 6:35 PM
Full, 100% visible
Pressure 30.00 in
Visibility 10.0 miles
Clouds Mostly Cloudy 7000 ft
Windchill 15 °F
Dew Point 14 °F
Humidity 64%
Rainfall 0.00 in
Snow Depth Not available.
UV 0 out of 12
Pollen .30 out of 12
Air Quality Not available.
Flu Activity Not available.
METAR KY19 060655Z AUTO 24009KT 10SM BKN070 M04/M10 A3000 RMK AO2

More Conditions Fewer Conditions

Pressure 30.00 in
Visibility 10.0 miles
Clouds Mostly Cloudy 7000 ft
Windchill 15 °F
Dew Point 14 °F
Humidity 64%
Rainfall 0.00 in
Snow Depth Not available.
UV 0 out of 12
Pollen .30 out of 12
Air Quality Not available.
Flu Activity Not available.
METAR KY19 060655Z AUTO 24009KT 10SM BKN070 M04/M10 A3000 RMK AO2

More Conditions Fewer Conditions

10-Day Weather Forecast

Almanac

Astronomy

Mar. 06, 2015 Rise Set
Actual Time
Civil Twilight
Nautical Twilight
Astronomical Twilight
Moon
Length of Visible Light
Length of Day
Tomorrow will be .
, % of the Moon is Illuminated

Today's Extremes

State Highs State Lows

Community

WunderPhotos

Upload Photos

1,803,199 photos uploaded!

WunderBlogs® & News

Nearby

Air Quality

  Air Quality AQ Index Pollutant
Not available.

Snow Depth

Station Depth Elevation

Earthquake Activity

City Distance Mag. Time & Date
Minimum magnitude displayed is 2.5.

Coastal Water Temperatures

Place Temperature

Nearby Weather Stations